Time;durP1;ratioP1;P1;durP2;ratioP2;P2;SDS_P1;SDS_P2;PMS_P1;PMS_P2;Temp;Humidity;BMP_temperature;BMP_pressure;BME280_temperature;BME280_humidity;BME280_pressure;Samples;Min_cycle;Max_cycle;Signal;HPM_P1;HPM_P2
2022/12/22 03:28:04;;;;;;;9.07;5.00;;;5.50;99.90;5.40;99687.00;;;;4989758;28;86963;-70
2022/12/22 03:30:31;;;;;;;7.73;4.50;;;5.60;99.90;5.40;99684.00;;;;4995268;27;88144;-68
2022/12/22 03:32:56;;;;;;;6.87;5.30;;;5.60;99.90;5.40;99683.00;;;;4989833;27;108478;-68
2022/12/22 03:35:22;;;;;;;6.70;4.13;;;6.20;99.90;5.50;99679.00;;;;4988881;27;104729;-70
2022/12/22 03:37:48;;;;;;;6.47;4.57;;;5.60;99.90;5.50;99679.00;;;;4991133;27;117040;-70
2022/12/22 03:40:13;;;;;;;6.40;4.27;;;5.80;99.90;5.50;99673.00;;;;4969646;28;109397;-69
2022/12/22 03:48:08;;;;;;;8.43;4.87;;;5.70;99.90;5.60;99665.00;;;;5004238;27;87929;-69
2022/12/22 03:50:33;;;;;;;6.40;4.97;;;6.20;99.90;5.60;99665.00;;;;5003699;27;110077;-69
2022/12/22 03:52:59;;;;;;;7.00;5.43;;;5.80;99.90;5.60;99662.00;;;;5011982;27;108760;-70
2022/12/22 03:55:25;;;;;;;6.93;4.90;;;5.70;99.90;5.60;99651.00;;;;4992039;27;118069;-70
2022/12/22 03:57:51;;;;;;;7.07;4.87;;;5.70;99.90;5.60;99648.00;;;;4994035;27;87957;-69
2022/12/22 04:00:17;;;;;;;9.10;5.57;;;5.80;99.90;5.70;99646.00;;;;5011890;27;110502;-68
2022/12/22 04:02:42;;;;;;;9.33;5.20;;;5.80;99.90;5.70;99647.00;;;;5010432;27;103421;-70
2022/12/22 04:05:08;;;;;;;6.23;4.20;;;5.80;99.90;5.70;99644.00;;;;5009666;27;118478;-70
2022/12/22 04:07:34;;;;;;;7.90;5.10;;;5.80;99.90;5.70;99644.00;;;;4979184;27;117285;-71
2022/12/22 04:12:56;;;;;;;5.77;4.30;;;5.90;99.90;5.70;99642.00;;;;5003702;27;88109;-70
2022/12/22 04:15:23;;;;;;;10.07;4.33;;;5.90;99.90;5.70;99641.00;;;;4991172;27;89885;-70
2022/12/22 04:17:49;;;;;;;7.00;4.43;;;6.20;99.90;5.70;99638.00;;;;5005511;27;88396;-69
2022/12/22 04:20:16;;;;;;;8.37;5.03;;;5.90;99.90;5.70;99631.00;;;;5010159;27;87831;-70
2022/12/22 04:22:41;;;;;;;5.60;4.87;;;5.90;99.90;5.80;99627.00;;;;4992985;27;87816;-69
2022/12/22 04:25:07;;;;;;;8.80;5.10;;;6.00;99.90;5.80;99626.00;;;;5008568;27;118918;-70
2022/12/22 04:27:33;;;;;;;8.83;5.43;;;5.90;99.90;5.80;99612.00;;;;5006671;27;107081;-69
2022/12/22 04:29:59;;;;;;;7.73;5.50;;;5.90;99.90;5.80;99627.00;;;;5010464;27;102040;-70
2022/12/22 04:32:25;;;;;;;6.03;4.63;;;6.60;99.90;5.80;99627.00;;;;5009372;27;108918;-69
2022/12/22 04:34:50;;;;;;;8.30;5.30;;;6.50;99.90;5.80;99608.00;;;;5008271;27;117570;-69
2022/12/22 04:37:16;;;;;;;8.43;5.97;;;5.90;99.90;5.90;99599.00;;;;5006027;27;118819;-68
2022/12/22 04:39:42;;;;;;;9.60;4.97;;;6.30;99.90;5.90;99608.00;;;;5011335;27;111079;-68
2022/12/22 04:42:07;;;;;;;9.40;5.30;;;6.00;99.90;5.90;99609.00;;;;5008227;27;108915;-68
2022/12/22 04:44:33;;;;;;;8.13;5.23;;;6.00;99.90;5.90;99606.00;;;;4992268;27;117480;-69
2022/12/22 04:46:59;;;;;;;7.07;5.33;;;6.30;99.90;5.90;99606.00;;;;5011547;27;117580;-68
2022/12/22 04:49:25;;;;;;;8.07;5.40;;;6.10;99.90;5.90;99593.00;;;;5010348;27;105097;-68
2022/12/22 04:51:50;;;;;;;22.37;10.80;;;6.10;99.90;5.90;99602.00;;;;5008934;27;108111;-68
2022/12/22 04:54:16;;;;;;;13.43;8.30;;;6.10;99.90;6.00;99592.00;;;;5010770;27;116445;-68
2022/12/22 04:56:42;;;;;;;11.27;6.33;;;6.10;99.90;6.00;99585.00;;;;4989606;27;116683;-68
2022/12/22 04:59:07;;;;;;;9.43;5.57;;;6.70;99.90;6.00;99592.00;;;;5012907;27;110792;-69
2022/12/22 05:01:33;;;;;;;9.67;4.70;;;6.10;99.90;6.00;99583.00;;;;5011316;27;109133;-67
2022/12/22 05:03:59;;;;;;;8.97;5.80;;;6.20;99.90;6.00;99579.00;;;;5012928;27;118214;-70
2022/12/22 05:06:24;;;;;;;8.53;5.37;;;6.10;99.90;6.00;99589.00;;;;5012768;27;109553;-67
2022/12/22 05:08:50;;;;;;;11.40;6.67;;;6.60;99.90;6.00;99588.00;;;;5015002;27;111605;-70
2022/12/22 05:11:16;;;;;;;11.80;7.50;;;6.20;99.90;6.10;99582.00;;;;4996584;27;108839;-68
2022/12/22 05:13:41;;;;;;;12.97;6.80;;;6.20;99.90;6.10;99583.00;;;;5013845;27;119556;-68
2022/12/22 05:16:15;;;;;;;13.20;7.63;;;6.20;99.90;6.10;99583.00;;;;5011999;27;116743;-68
2022/12/22 05:18:43;;;;;;;9.63;6.23;;;6.90;99.90;6.10;99570.00;;;;4994063;27;92800;-68
2022/12/22 05:21:21;;;;;;;13.13;6.00;;;6.80;99.90;6.10;99575.00;;;;5014319;27;87854;-69
2022/12/22 05:23:47;;;;;;;10.63;6.07;;;6.30;99.90;6.20;99567.00;;;;5015541;27;88178;-69
2022/12/22 05:26:14;;;;;;;12.00;6.50;;;6.50;99.90;6.20;99565.00;;;;5012169;27;105226;-68
2022/12/22 05:28:42;;;;;;;9.87;5.87;;;6.30;99.90;6.20;99568.00;;;;5014052;27;87819;-69
2022/12/22 05:31:14;;;;;;;12.00;8.00;;;6.30;99.90;6.20;99557.00;;;;4973714;27;87338;-71
2022/12/22 05:33:40;;;;;;;10.23;7.13;;;6.30;99.90;6.20;99562.00;;;;4977691;27;89411;-68
2022/12/22 05:36:06;;;;;;;9.23;6.33;;;6.40;99.90;6.20;99565.00;;;;5012073;27;116932;-68
2022/12/22 05:38:32;;;;;;;10.87;7.07;;;6.30;99.90;6.20;99561.00;;;;5013115;27;89567;-68
2022/12/22 05:40:57;;;;;;;9.60;6.40;;;6.30;99.90;6.20;99551.00;;;;5013738;27;90237;-67
2022/12/22 05:43:23;;;;;;;11.63;6.43;;;6.30;99.90;6.20;99553.00;;;;5012249;27;117558;-67
2022/12/22 05:45:49;;;;;;;10.83;6.90;;;6.30;99.90;6.20;99560.00;;;;5012926;27;117650;-70
2022/12/22 05:48:15;;;;;;;9.63;6.07;;;7.00;99.90;6.20;99548.00;;;;5012922;27;110453;-68
2022/12/22 05:50:40;;;;;;;9.53;5.90;;;6.30;99.90;6.20;99545.00;;;;4997105;27;87952;-68
2022/12/22 05:53:07;;;;;;;7.70;5.50;;;6.30;99.90;6.20;99551.00;;;;5015016;27;116117;-68
2022/12/22 05:55:33;;;;;;;7.73;5.50;;;6.30;99.90;6.10;99545.00;;;;5014045;27;116544;-68
2022/12/22 05:58:02;;;;;;;9.23;6.47;;;6.30;99.90;6.10;99542.00;;;;5015066;27;87618;-68
2022/12/22 06:00:30;;;;;;;10.70;6.40;;;6.50;99.90;6.10;99538.00;;;;5014332;27;87905;-68
2022/12/22 06:02:57;;;;;;;7.53;5.87;;;6.30;99.90;6.10;99538.00;;;;5015683;27;89758;-70
2022/12/22 06:05:23;;;;;;;14.33;6.90;;;6.30;99.90;6.10;99545.00;;;;5007190;27;119949;-71
2022/12/22 06:07:49;;;;;;;11.93;5.67;;;6.30;99.90;6.10;99526.00;;;;5014775;27;87839;-69
2022/12/22 06:10:15;;;;;;;11.97;7.33;;;6.30;99.90;6.10;99528.00;;;;5010520;27;108773;-69
2022/12/22 06:12:41;;;;;;;8.50;5.60;;;6.30;99.90;6.00;99525.00;;;;5014236;27;105002;-68
2022/12/22 06:15:11;;;;;;;10.40;6.43;;;6.80;99.90;6.00;99532.00;;;;5009134;27;102544;-68
2022/12/22 06:17:37;;;;;;;10.73;6.47;;;6.20;99.90;6.00;99527.00;;;;5012670;27;87568;-69
2022/12/22 06:20:05;;;;;;;10.90;6.63;;;6.20;99.90;6.00;99525.00;;;;5012361;27;106589;-71
2022/12/22 06:22:32;;;;;;;10.03;5.80;;;6.10;99.90;5.90;99520.00;;;;4980142;27;97797;-69
2022/12/22 06:24:58;;;;;;;11.83;6.73;;;6.10;99.90;5.90;99540.00;;;;5009687;27;87820;-68
2022/12/22 06:27:24;;;;;;;10.43;6.40;;;6.10;99.90;5.90;99524.00;;;;4991533;27;110495;-69
2022/12/22 06:29:49;;;;;;;9.57;5.67;;;6.10;99.90;5.80;99537.00;;;;5012633;27;96277;-68
2022/12/22 06:32:15;;;;;;;12.60;6.93;;;6.00;99.90;5.80;99525.00;;;;5012665;27;118418;-68
2022/12/22 06:34:41;;;;;;;10.43;7.00;;;6.00;99.90;5.80;99531.00;;;;4993853;27;116695;-68
2022/12/22 06:37:06;;;;;;;10.70;6.30;;;6.00;99.90;5.80;99522.00;;;;5012565;27;110795;-69
2022/12/22 06:39:32;;;;;;;7.57;5.87;;;6.00;99.90;5.80;99531.00;;;;4995192;27;87864;-68
2022/12/22 06:44:42;;;;;;;11.33;5.60;;;6.00;99.90;5.80;99518.00;;;;5012746;27;86963;-70
2022/12/22 06:47:07;;;;;;;8.77;5.53;;;6.60;99.90;5.80;99517.00;;;;5013197;27;110930;-70
2022/12/22 06:49:33;;;;;;;8.33;5.30;;;6.10;99.90;5.90;99518.00;;;;5013195;27;108952;-70
2022/12/22 06:51:59;;;;;;;11.90;5.50;;;6.00;99.90;5.90;99515.00;;;;4992780;27;117380;-70
2022/12/22 06:54:24;;;;;;;8.07;5.03;;;6.00;99.90;5.90;99510.00;;;;5012099;27;89525;-70
2022/12/22 06:56:50;;;;;;;12.10;6.87;;;6.00;99.90;5.90;99512.00;;;;5013871;27;109423;-71
2022/12/22 06:59:16;;;;;;;9.10;5.87;;;5.40;99.90;5.80;99510.00;;;;5009751;27;108899;-69
2022/12/22 07:01:41;;;;;;;9.50;5.77;;;6.00;99.90;5.90;99518.00;;;;5010968;27;106517;-70
2022/12/22 07:04:08;;;;;;;10.30;5.67;;;6.00;99.90;5.90;99521.00;;;;4975609;27;116608;-70
2022/12/22 07:06:35;;;;;;;10.83;6.07;;;6.00;99.90;5.90;99515.00;;;;5004378;27;87912;-70
2022/12/22 07:09:00;;;;;;;9.53;5.23;;;6.20;99.90;5.90;99512.00;;;;5009179;27;87119;-72
2022/12/22 07:11:26;;;;;;;10.37;6.67;;;6.10;99.90;5.90;99505.00;;;;5008058;27;117184;-69
2022/12/22 07:13:52;;;;;;;7.07;5.30;;;6.00;99.90;5.90;99495.00;;;;4988683;27;116698;-72
2022/12/22 07:16:18;;;;;;;8.00;5.50;;;6.00;99.90;5.90;99502.00;;;;4971156;27;89241;-69
2022/12/22 07:18:44;;;;;;;12.77;5.67;;;6.00;99.90;5.90;99499.00;;;;5007748;27;87727;-71
2022/12/22 07:21:12;;;;;;;8.10;5.57;;;6.00;99.90;5.90;99501.00;;;;5003538;27;116553;-71
2022/12/22 07:23:39;;;;;;;8.87;5.53;;;6.10;99.90;5.90;99499.00;;;;5005399;27;88235;-71
2022/12/22 07:26:06;;;;;;;11.00;6.00;;;6.10;99.90;5.90;99492.00;;;;5008655;27;87564;-69
2022/12/22 07:28:35;;;;;;;11.93;6.67;;;6.10;99.90;6.00;99497.00;;;;5010940;27;87695;-71
2022/12/22 07:31:01;;;;;;;8.93;5.23;;;6.50;99.90;6.00;99495.00;;;;4969116;28;89239;-73
2022/12/22 07:33:27;;;;;;;10.30;5.50;;;6.10;99.90;5.90;99480.00;;;;5005241;27;88128;-71
2022/12/22 07:36:14;;;;;;;9.17;5.93;;;6.10;99.90;5.90;99477.00;;;;5008868;27;88920;-74
2022/12/22 07:38:43;;;;;;;8.50;6.37;;;6.10;99.90;6.00;99478.00;;;;4969795;27;87846;-72
2022/12/22 07:44:09;;;;;;;8.70;5.70;;;6.00;99.90;6.00;99463.00;;;;4951673;27;89205;-74
2022/12/22 07:46:37;;;;;;;6.43;4.50;;;6.10;99.90;6.00;99472.00;;;;4989968;27;87884;-72
2022/12/22 07:51:49;;;;;;;5.60;4.80;;;6.10;99.90;6.00;99466.00;;;;4992841;27;87807;-73
2022/12/22 07:54:15;;;;;;;9.67;5.73;;;6.10;99.90;6.00;99464.00;;;;5004894;27;88450;-74
2022/12/22 07:56:41;;;;;;;8.40;5.30;;;6.10;99.90;6.00;99468.00;;;;4967617;27;87903;-75
2022/12/22 07:59:08;;;;;;;9.07;5.47;;;6.20;99.90;6.00;99458.00;;;;4988531;27;87345;-73
2022/12/22 08:01:34;;;;;;;9.20;5.20;;;6.20;99.90;6.00;99468.00;;;;4987894;27;90354;-72
2022/12/22 08:04:00;;;;;;;7.73;5.00;;;6.20;99.90;6.00;99467.00;;;;4972432;27;89214;-74
2022/12/22 08:06:25;;;;;;;7.47;5.93;;;6.20;99.90;6.00;99457.00;;;;5003455;27;110330;-75
2022/12/22 08:08:52;;;;;;;9.70;5.70;;;6.20;99.90;6.00;99450.00;;;;4986662;27;108366;-77
2022/12/22 08:11:18;;;;;;;8.90;5.43;;;6.60;99.90;6.00;99450.00;;;;5005571;27;119272;-76
2022/12/22 08:13:43;;;;;;;6.57;5.40;;;5.60;99.90;6.10;99450.00;;;;4971666;27;116972;-78
2022/12/22 08:16:12;;;;;;;10.40;5.53;;;6.20;99.90;6.10;99447.00;;;;4969668;27;110051;-77
2022/12/22 08:18:39;;;;;;;8.70;5.37;;;6.20;99.90;6.10;99448.00;;;;4989819;27;89315;-78
2022/12/22 08:21:06;;;;;;;9.20;6.27;;;6.60;99.90;6.10;99452.00;;;;4972202;27;90360;-75
2022/12/22 08:23:32;;;;;;;7.00;4.90;;;6.30;99.90;6.10;99434.00;;;;4988214;27;88567;-74
2022/12/22 08:26:09;;;;;;;7.97;4.93;;;6.30;99.90;6.20;99440.00;;;;5006269;27;87863;-76
2022/12/22 08:28:41;;;;;;;6.70;4.63;;;6.30;99.90;6.20;99423.00;;;;4989853;27;87761;-74
2022/12/22 08:31:06;;;;;;;5.90;4.67;;;6.50;99.90;6.20;99428.00;;;;4988278;27;88989;-76
2022/12/22 08:33:32;;;;;;;7.57;5.00;;;6.30;99.90;6.30;99417.00;;;;4985326;27;118599;-77
2022/12/22 08:35:58;;;;;;;7.73;4.23;;;6.40;99.90;6.30;99417.00;;;;4970528;27;89166;-75
2022/12/22 08:38:24;;;;;;;4.70;4.23;;;6.60;99.90;6.30;99413.00;;;;5010833;27;87622;-76
2022/12/22 08:40:50;;;;;;;10.53;5.20;;;7.00;99.90;6.30;99417.00;;;;4992401;27;116411;-78
2022/12/22 08:43:18;;;;;;;6.40;3.73;;;7.00;99.90;6.30;99410.00;;;;4990622;27;88493;-75
2022/12/22 08:45:44;;;;;;;5.67;3.90;;;6.50;99.90;6.40;99410.00;;;;5007996;27;88319;-75
2022/12/22 08:48:10;;;;;;;7.20;3.97;;;6.50;99.90;6.40;99404.00;;;;5007555;27;107885;-78
2022/12/22 08:50:36;;;;;;;7.33;4.23;;;7.40;99.90;6.40;99402.00;;;;4990834;27;118084;-76
2022/12/22 08:53:04;;;;;;;6.43;4.67;;;6.50;99.90;6.40;99407.00;;;;4991034;27;117219;-77
2022/12/22 08:55:29;;;;;;;4.40;3.93;;;6.50;99.90;6.40;99396.00;;;;4992249;27;88961;-80
2022/12/22 08:57:55;;;;;;;6.20;3.97;;;6.50;99.90;6.40;99393.00;;;;5009604;27;108508;-76
2022/12/22 09:00:21;;;;;;;4.37;3.93;;;7.20;99.90;6.40;99392.00;;;;5009020;27;117434;-77
2022/12/22 09:02:47;;;;;;;5.37;3.63;;;6.60;99.90;6.50;99393.00;;;;4989222;27;88500;-80
2022/12/22 09:05:13;;;;;;;6.97;4.27;;;6.60;99.90;6.50;99394.00;;;;4990971;27;110440;-77
2022/12/22 09:07:39;;;;;;;6.17;3.33;;;6.60;99.90;6.50;99390.00;;;;5010243;27;91803;-77
2022/12/22 09:10:07;;;;;;;8.93;4.50;;;6.70;99.90;6.50;99393.00;;;;4992819;27;88314;-80
2022/12/22 09:12:34;;;;;;;7.00;4.80;;;6.70;99.90;6.60;99383.00;;;;4990295;27;96954;-81
2022/12/22 09:15:00;;;;;;;8.37;4.50;;;6.70;99.90;6.60;99390.00;;;;4992015;27;90049;-79
2022/12/22 09:17:26;;;;;;;6.40;4.33;;;7.10;99.90;6.60;99386.00;;;;4991245;27;87996;-78
2022/12/22 09:19:51;;;;;;;5.77;4.20;;;6.70;99.90;6.70;99377.00;;;;5009764;27;107427;-78
2022/12/22 09:22:17;;;;;;;6.73;4.00;;;6.80;99.90;6.70;99368.00;;;;5009472;27;88975;-78
2022/12/22 09:24:43;;;;;;;5.77;4.30;;;7.30;99.90;6.80;99375.00;;;;4980188;27;87920;-79
2022/12/22 09:27:09;;;;;;;6.03;4.30;;;6.80;99.90;6.80;99370.00;;;;4972543;27;87873;-77
2022/12/22 09:29:39;;;;;;;9.67;4.67;;;6.90;99.90;6.80;99368.00;;;;4972752;27;110089;-82
2022/12/22 09:32:05;;;;;;;8.03;4.33;;;6.90;99.90;6.80;99369.00;;;;4989713;27;89006;-82
2022/12/22 09:34:31;;;;;;;7.17;4.40;;;5.50;99.90;6.90;99369.00;;;;4975283;27;98451;-78
2022/12/22 09:36:57;;;;;;;8.23;4.63;;;6.90;99.90;6.90;99364.00;;;;4983590;27;92311;-77
2022/12/22 09:39:22;;;;;;;7.67;4.90;;;7.00;99.90;6.90;99366.00;;;;4972766;27;90198;-79
2022/12/22 09:41:56;;;;;;;6.37;4.73;;;6.90;99.90;6.90;99364.00;;;;4970311;27;119854;-77
2022/12/22 09:44:37;;;;;;;5.50;4.00;;;7.00;99.90;6.90;99351.00;;;;4989208;27;88828;-74
2022/12/22 09:47:34;;;;;;;5.67;4.57;;;7.00;99.90;6.90;99356.00;;;;4985562;27;88222;-77
2022/12/22 09:50:01;;;;;;;5.27;3.97;;;7.10;99.90;6.90;99357.00;;;;4979435;28;88028;-78
2022/12/22 09:52:32;;;;;;;9.83;5.83;;;7.00;99.90;6.90;99347.00;;;;4976441;27;90584;-79
2022/12/22 09:54:59;;;;;;;8.17;4.80;;;7.00;99.90;6.90;99345.00;;;;4988848;27;90674;-79
2022/12/22 09:57:30;;;;;;;6.87;5.17;;;7.10;99.90;6.90;99349.00;;;;4990111;27;88171;-76
2022/12/22 10:00:14;;;;;;;6.13;4.47;;;7.10;99.90;6.90;99352.00;;;;4991616;27;88330;-76
2022/12/22 10:03:09;;;;;;;10.03;5.90;;;6.80;99.90;6.90;99331.00;;;;4989764;27;88522;-76
2022/12/22 10:05:53;;;;;;;7.00;4.30;;;7.10;99.90;7.00;99337.00;;;;5009924;27;87970;-78
2022/12/22 10:08:31;;;;;;;5.33;4.53;;;7.10;99.90;7.00;99333.00;;;;5005842;27;103253;-77
2022/12/22 10:10:56;;;;;;;7.73;4.43;;;7.10;99.90;7.00;99334.00;;;;4989506;27;98553;-76
2022/12/22 10:13:22;;;;;;;7.07;5.30;;;7.40;99.90;7.00;99325.00;;;;4987697;27;118365;-77
2022/12/22 10:15:48;;;;;;;8.50;4.83;;;7.10;99.90;7.00;99322.00;;;;4988881;27;103718;-73
2022/12/22 10:18:26;;;;;;;5.33;4.83;;;7.10;99.90;7.00;99314.00;;;;5006796;27;87830;-78
2022/12/22 10:21:10;;;;;;;7.43;5.27;;;7.10;99.90;7.00;99308.00;;;;4974738;27;88976;-74
2022/12/22 10:23:47;;;;;;;7.03;5.00;;;7.30;99.90;7.00;99300.00;;;;4971818;27;89240;-75
2022/12/22 10:26:19;;;;;;;6.03;4.80;;;7.10;99.90;7.00;99297.00;;;;5007609;27;87795;-75
2022/12/22 10:28:53;;;;;;;5.87;4.13;;;7.10;99.90;7.10;99284.00;;;;5008900;27;87520;-76
2022/12/22 10:31:24;;;;;;;5.43;4.57;;;7.20;99.90;7.10;99294.00;;;;4973152;27;90502;-78
2022/12/22 10:34:10;;;;;;;5.13;4.10;;;7.20;99.90;7.20;99287.00;;;;4990491;27;87935;-78
2022/12/22 10:36:36;;;;;;;6.77;4.77;;;7.30;99.90;7.20;99289.00;;;;5007121;27;89764;-76
2022/12/22 10:39:08;;;;;;;9.90;4.97;;;7.40;99.90;7.30;99291.00;;;;4969776;27;89216;-77
2022/12/22 10:41:47;;;;;;;6.23;4.13;;;7.10;99.90;7.30;99295.00;;;;4988760;27;88564;-76
2022/12/22 10:44:16;;;;;;;10.13;4.63;;;7.50;99.90;7.30;99281.00;;;;4975409;27;105943;-76
2022/12/22 10:46:49;;;;;;;9.10;5.00;;;7.50;99.90;7.40;99291.00;;;;5006128;27;107007;-78
2022/12/22 10:49:16;;;;;;;8.07;4.57;;;7.50;99.90;7.40;99278.00;;;;4987080;27;88007;-76
2022/12/22 10:51:46;;;;;;;8.23;4.90;;;7.50;99.90;7.40;99284.00;;;;4994019;27;90020;-78
2022/12/22 10:54:34;;;;;;;8.00;4.83;;;7.60;99.90;7.50;99283.00;;;;5005216;27;89194;-77
2022/12/22 10:57:28;;;;;;;5.77;4.20;;;7.60;99.90;7.50;99282.00;;;;5008377;27;88089;-77
2022/12/22 10:59:57;;;;;;;5.90;4.37;;;7.60;99.90;7.60;99285.00;;;;4971869;27;87969;-77
2022/12/22 11:02:29;;;;;;;8.43;4.83;;;7.70;99.90;7.60;99281.00;;;;4987347;27;89183;-75
2022/12/22 11:05:09;;;;;;;8.13;5.10;;;7.70;99.90;7.60;99280.00;;;;4972941;27;90580;-78
2022/12/22 11:07:39;;;;;;;6.33;4.93;;;7.70;99.90;7.70;99272.00;;;;5007241;27;88110;-76
2022/12/22 11:10:42;;;;;;;6.47;4.30;;;7.80;99.90;7.70;99275.00;;;;5002478;27;88004;-75
2022/12/22 11:13:28;;;;;;;5.67;4.03;;;7.80;99.90;7.80;99277.00;;;;4972493;27;90454;-77
2022/12/22 11:16:22;;;;;;;5.97;3.87;;;7.90;99.90;7.80;99269.00;;;;4989555;27;87991;-79
2022/12/22 11:19:31;;;;;;;6.53;4.23;;;7.90;99.90;7.90;99266.00;;;;4988377;27;102337;-77
2022/12/22 11:22:10;;;;;;;6.13;4.33;;;8.00;99.90;7.90;99259.00;;;;4990366;27;99086;-78
2022/12/22 11:24:55;;;;;;;6.73;4.10;;;8.00;99.90;7.90;99256.00;;;;4989430;27;88457;-75
2022/12/22 11:27:45;;;;;;;8.60;4.77;;;7.50;99.90;7.90;99255.00;;;;5005837;27;87922;-78
2022/12/22 11:30:43;;;;;;;5.87;4.00;;;8.10;99.90;7.90;99248.00;;;;4988503;27;104691;-77
2022/12/22 11:33:25;;;;;;;9.23;4.70;;;8.10;99.90;8.00;99238.00;;;;5006426;27;89359;-75
2022/12/22 11:36:01;;;;;;;8.97;4.50;;;8.10;99.90;8.00;99230.00;;;;4971533;27;90691;-75
2022/12/22 11:38:51;;;;;;;9.80;4.93;;;8.10;99.90;8.00;99233.00;;;;4986021;27;88554;-78
2022/12/22 11:41:48;;;;;;;7.57;4.37;;;8.10;99.90;8.00;99217.00;;;;4988535;27;102808;-75
2022/12/22 11:45:02;;;;;;;6.07;3.87;;;8.10;99.90;8.00;99212.00;;;;4986797;27;95861;-78
2022/12/22 11:47:58;;;;;;;7.20;4.87;;;8.20;99.90;8.10;99209.00;;;;4998572;27;89728;-78
2022/12/22 11:50:49;;;;;;;5.40;3.90;;;8.20;99.90;8.10;99206.00;;;;4987281;27;111290;-76
2022/12/22 11:53:46;;;;;;;5.70;4.67;;;8.20;99.90;8.10;99206.00;;;;4971057;27;88564;-76
2022/12/22 11:56:22;;;;;;;6.37;4.53;;;8.30;99.90;8.20;99204.00;;;;4985185;27;87987;-76
2022/12/22 11:59:40;;;;;;;5.13;4.40;;;8.30;99.90;8.30;99207.00;;;;4968456;27;90275;-77
2022/12/22 12:02:27;;;;;;;5.63;4.27;;;8.40;99.90;8.30;99207.00;;;;4984216;27;91141;-76
2022/12/22 12:05:41;;;;;;;6.07;4.80;;;8.40;99.90;8.30;99208.00;;;;5009857;27;87685;-74
2022/12/22 12:08:23;;;;;;;6.47;4.90;;;8.50;99.90;8.40;99207.00;;;;5005087;27;88605;-75
2022/12/22 12:11:03;;;;;;;3.67;3.30;;;8.50;99.90;8.40;99201.00;;;;4989333;27;87992;-73
2022/12/22 12:14:00;;;;;;;9.10;5.10;;;8.50;99.90;8.50;99195.00;;;;5008677;27;87963;-75
2022/12/22 12:16:33;;;;;;;7.03;4.80;;;8.60;99.90;8.50;99194.00;;;;5005893;27;88036;-76
2022/12/22 12:19:34;;;;;;;7.80;4.30;;;8.60;99.90;8.60;99195.00;;;;4984890;27;87230;-75
2022/12/22 12:22:04;;;;;;;6.23;4.07;;;9.20;99.90;8.60;99205.00;;;;4973446;27;112173;-75
2022/12/22 12:25:01;;;;;;;6.17;4.03;;;8.70;99.90;8.60;99195.00;;;;4986241;27;88102;-73
2022/12/22 12:27:44;;;;;;;7.67;5.20;;;8.80;99.90;8.70;99187.00;;;;5003800;27;90095;-73
2022/12/22 12:30:19;;;;;;;4.83;3.83;;;8.80;99.90;8.70;99189.00;;;;5002958;27;89476;-76
2022/12/22 12:33:15;;;;;;;4.93;4.00;;;8.80;99.90;8.70;99196.00;;;;5000761;27;89406;-78
2022/12/22 12:36:03;;;;;;;5.80;4.20;;;8.80;99.90;8.70;99186.00;;;;4986729;27;89519;-73
2022/12/22 12:38:42;;;;;;;4.80;4.33;;;9.10;99.90;8.70;99180.00;;;;4987863;27;101414;-74
2022/12/22 12:41:30;;;;;;;5.70;4.07;;;8.90;99.90;8.70;99183.00;;;;4987381;27;100354;-74
2022/12/22 12:43:56;;;;;;;7.33;4.00;;;8.80;99.90;8.70;99186.00;;;;4973409;27;88705;-77
2022/12/22 12:46:51;;;;;;;5.87;3.90;;;8.80;99.90;8.70;99189.00;;;;4968005;28;88102;-77
2022/12/22 12:49:34;;;;;;;7.50;4.30;;;8.90;99.90;8.70;99189.00;;;;4985349;27;88046;-77
2022/12/22 12:52:08;;;;;;;21.00;9.87;;;8.90;99.90;8.70;99182.00;;;;4969808;27;87929;-77
2022/12/22 12:54:50;;;;;;;13.63;8.90;;;8.90;99.90;8.70;99187.00;;;;4949364;28;91916;-78
2022/12/22 12:57:46;;;;;;;7.23;5.40;;;8.90;99.90;8.70;99186.00;;;;4969962;28;88903;-77
2022/12/22 13:00:42;;;;;;;6.53;4.80;;;8.90;99.90;8.70;99186.00;;;;4966505;28;88378;-77
2022/12/22 13:03:23;;;;;;;4.47;3.70;;;8.80;99.90;8.70;99183.00;;;;4967939;27;88520;-76
2022/12/22 13:05:53;;;;;;;5.00;4.07;;;8.90;99.90;8.80;99177.00;;;;4985457;27;96605;-74
2022/12/22 13:08:25;;;;;;;6.73;5.00;;;8.90;99.90;8.70;99171.00;;;;4978981;27;87919;-76
2022/12/22 13:10:54;;;;;;;4.30;3.37;;;8.90;99.90;8.80;99182.00;;;;4969446;28;87821;-73
2022/12/22 13:13:25;;;;;;;5.63;3.80;;;9.00;99.90;8.80;99181.00;;;;4985734;27;87147;-76
2022/12/22 13:16:05;;;;;;;4.60;2.80;;;8.90;99.90;8.80;99172.00;;;;4967010;27;90269;-75
2022/12/22 13:18:43;;;;;;;3.60;2.83;;;9.10;99.90;8.80;99174.00;;;;4965724;27;90050;-75
2022/12/22 13:21:16;;;;;;;4.20;3.33;;;8.90;99.90;8.80;99184.00;;;;4987391;27;88686;-74
2022/12/22 13:23:57;;;;;;;4.17;2.13;;;8.90;99.90;8.80;99188.00;;;;4985841;27;89470;-74
2022/12/22 13:26:39;;;;;;;2.63;2.13;;;8.90;99.90;8.80;99183.00;;;;4995680;27;88955;-76
2022/12/22 13:29:22;;;;;;;4.90;2.90;;;9.00;99.90;8.90;99183.00;;;;4974235;28;88104;-76
2022/12/22 13:32:01;;;;;;;4.07;2.53;;;9.00;99.90;8.90;99193.00;;;;4958206;27;87430;-77
2022/12/22 13:34:47;;;;;;;3.93;3.13;;;9.00;99.90;8.90;99199.00;;;;4957325;28;87837;-77
2022/12/22 13:37:22;;;;;;;5.83;3.83;;;9.00;99.90;8.90;99192.00;;;;4976335;27;88191;-74
2022/12/22 13:40:41;;;;;;;7.70;3.40;;;9.10;99.90;8.90;99200.00;;;;4951861;27;87409;-77
2022/12/22 13:43:14;;;;;;;4.80;2.83;;;9.10;99.90;8.90;99194.00;;;;4970838;27;86976;-77
2022/12/22 13:45:49;;;;;;;5.27;2.97;;;9.50;99.90;9.00;99190.00;;;;4957910;27;87606;-75
2022/12/22 13:49:08;;;;;;;7.30;3.10;;;9.10;99.90;8.90;99194.00;;;;4957341;28;88828;-75
2022/12/22 13:51:56;;;;;;;4.17;2.80;;;9.10;99.90;9.00;99202.00;;;;4977046;27;88714;-76
2022/12/22 13:54:29;;;;;;;6.03;4.03;;;9.10;99.90;9.00;99194.00;;;;4942082;28;87772;-77
2022/12/22 13:56:58;;;;;;;6.63;4.40;;;9.10;99.90;9.00;99199.00;;;;4955637;27;87450;-77
2022/12/22 13:59:41;;;;;;;6.00;4.80;;;9.10;99.90;9.00;99201.00;;;;4954400;28;87985;-75
2022/12/22 14:02:07;;;;;;;6.97;4.50;;;9.10;99.90;9.00;99206.00;;;;4967354;27;87633;-77
2022/12/22 14:04:41;;;;;;;6.37;4.23;;;9.10;99.90;9.00;99204.00;;;;4968560;28;87841;-75
2022/12/22 14:07:17;;;;;;;5.70;3.73;;;9.10;99.90;9.00;99204.00;;;;4954585;28;86804;-74
2022/12/22 14:09:55;;;;;;;5.80;4.67;;;9.10;99.90;9.00;99216.00;;;;4971696;28;87573;-75
2022/12/22 14:12:25;;;;;;;4.97;3.50;;;9.20;99.90;9.00;99212.00;;;;4954672;27;87423;-75
2022/12/22 14:14:53;;;;;;;2.60;2.30;;;9.10;99.90;9.00;99210.00;;;;4967474;28;88527;-77
2022/12/22 14:17:28;;;;;;;5.17;3.13;;;9.10;99.90;9.10;99218.00;;;;4972189;27;87137;-77
2022/12/22 14:19:57;;;;;;;3.53;3.00;;;9.20;99.90;9.10;99215.00;;;;4954981;28;89427;-76
2022/12/22 14:22:33;;;;;;;7.30;3.43;;;9.20;99.90;9.10;99219.00;;;;4972288;27;87664;-77
2022/12/22 14:25:09;;;;;;;8.43;3.33;;;9.20;99.90;9.10;99203.00;;;;4974516;22;87652;-78
2022/12/22 14:27:59;;;;;;;5.77;2.97;;;9.20;99.90;9.10;99203.00;;;;5006850;27;87562;-79
2022/12/22 14:31:01;;;;;;;8.40;5.10;;;9.20;99.90;9.00;99206.00;;;;4968746;28;90052;-80
2022/12/22 14:33:38;;;;;;;6.70;3.77;;;9.20;99.90;9.00;99211.00;;;;4995995;28;89941;-78
2022/12/22 14:36:24;;;;;;;4.97;3.40;;;9.20;99.90;9.00;99220.00;;;;4958048;28;87812;-79
2022/12/22 14:38:52;;;;;;;5.10;3.40;;;9.20;99.90;9.00;99222.00;;;;4951969;28;87903;-81
2022/12/22 14:41:52;;;;;;;8.10;4.87;;;9.10;99.90;9.00;99230.00;;;;4943288;28;88625;-80
2022/12/22 14:44:29;;;;;;;8.53;5.30;;;9.20;99.90;9.00;99229.00;;;;4951176;28;88253;-80
2022/12/22 14:47:11;;;;;;;6.80;4.13;;;9.20;99.90;9.00;99235.00;;;;4974689;28;87760;-79
2022/12/22 14:49:55;;;;;;;8.23;4.90;;;9.20;99.90;9.00;99236.00;;;;4971247;28;87836;-79
2022/12/22 14:52:42;;;;;;;6.30;4.13;;;9.20;99.90;9.10;99238.00;;;;4942956;28;90010;-77
2022/12/22 14:55:40;;;;;;;6.23;4.47;;;9.20;99.90;9.00;99254.00;;;;4961889;22;88261;-79
2022/12/22 14:58:50;;;;;;;4.70;3.20;;;9.20;99.90;9.10;99253.00;;;;4999895;27;87706;-78
2022/12/22 15:01:27;;;;;;;1.97;1.67;;;9.20;99.90;9.10;99257.00;;;;4993018;22;86958;-79
2022/12/22 15:04:17;;;;;;;3.50;2.27;;;9.20;99.90;9.20;99241.00;;;;4930359;28;87985;-77
2022/12/22 15:06:46;;;;;;;4.40;1.33;;;9.30;99.90;9.20;99260.00;;;;4931606;28;87675;-78
2022/12/22 15:09:12;;;;;;;3.10;1.40;;;9.30;99.90;9.30;99263.00;;;;4946986;28;88515;-84
2022/12/22 15:11:46;;;;;;;4.40;1.90;;;9.40;99.90;9.40;99266.00;;;;4987425;22;87645;-79
2022/12/22 15:14:24;;;;;;;1.20;0.80;;;9.50;99.90;9.50;99275.00;;;;4945451;28;87976;-75
2022/12/22 15:16:55;;;;;;;1.40;1.30;;;9.60;99.90;9.60;99278.00;;;;4970114;27;87658;-74